Time;durP1;ratioP1;P1;durP2;ratioP2;P2;SDS_P1;SDS_P2;PMS_P1;PMS_P2;Temp;Humidity;BMP_temperature;BMP_pressure;BME280_temperature;BME280_humidity;BME280_pressure;Samples;Min_cycle;Max_cycle;Signal;HPM_P1;HPM_P2
2022/07/02 00:00:43;;;;;;;1.50;1.00;;;22.70;58.80;;;;;;5067597;28;20048;-73
2022/07/02 00:03:10;;;;;;;1.60;1.00;;;22.70;58.80;;;;;;5067863;28;20579;-73
2022/07/02 00:05:37;;;;;;;1.17;0.90;;;22.70;58.80;;;;;;5068660;28;20075;-73
2022/07/02 00:08:04;;;;;;;1.48;1.05;;;22.70;58.80;;;;;;5068416;28;20080;-73
2022/07/02 00:10:32;;;;;;;1.00;0.90;;;22.60;58.60;;;;;;5068572;28;20052;-73
2022/07/02 00:12:58;;;;;;;1.35;1.00;;;22.70;58.70;;;;;;5067146;28;20390;-73
2022/07/02 00:15:25;;;;;;;2.47;1.10;;;22.70;58.80;;;;;;5067487;28;20053;-73
2022/07/02 00:17:52;;;;;;;1.63;0.95;;;22.60;58.70;;;;;;5068228;28;20432;-72
2022/07/02 00:20:19;;;;;;;1.58;0.80;;;22.60;58.70;;;;;;5068023;28;20139;-73
2022/07/02 00:22:45;;;;;;;1.25;0.95;;;22.60;58.60;;;;;;5068212;28;20055;-72
2022/07/02 00:25:12;;;;;;;1.77;1.13;;;22.50;58.60;;;;;;5069423;28;20572;-73
2022/07/02 00:27:41;;;;;;;0.98;0.80;;;22.60;58.70;;;;;;5064043;28;20059;-73
2022/07/02 00:30:08;;;;;;;3.15;1.23;;;22.60;58.70;;;;;;5048908;28;20049;-73
2022/07/02 00:32:36;;;;;;;2.15;1.20;;;22.50;58.60;;;;;;5048075;28;20143;-73
2022/07/02 00:35:05;;;;;;;1.17;0.95;;;22.50;58.70;;;;;;5047467;28;20449;-72
2022/07/02 00:37:32;;;;;;;1.60;1.00;;;22.50;58.70;;;;;;5047841;28;20051;-72
2022/07/02 00:39:59;;;;;;;1.40;1.00;;;22.50;58.70;;;;;;5056390;28;20051;-72
2022/07/02 00:42:25;;;;;;;0.80;0.80;;;22.50;58.70;;;;;;5067241;28;20116;-72
2022/07/02 00:44:53;;;;;;;1.58;1.00;;;22.50;58.70;;;;;;5067791;28;20048;-72
2022/07/02 00:47:21;;;;;;;1.08;0.90;;;22.50;58.70;;;;;;5067700;28;20139;-72
2022/07/02 00:49:48;;;;;;;1.40;1.00;;;22.50;58.70;;;;;;5067608;28;20076;-72
2022/07/02 00:52:14;;;;;;;1.60;1.20;;;22.50;58.70;;;;;;5067587;28;20135;-72
2022/07/02 00:54:41;;;;;;;1.52;1.10;;;22.40;58.70;;;;;;5067521;28;20654;-72
2022/07/02 00:57:08;;;;;;;1.27;0.80;;;22.40;58.70;;;;;;5064655;28;20055;-73
2022/07/02 00:59:35;;;;;;;1.38;1.13;;;22.40;58.70;;;;;;5065147;28;20047;-72
2022/07/02 01:02:04;;;;;;;1.35;0.98;;;22.40;58.80;;;;;;5067303;28;20131;-73
2022/07/02 01:04:31;;;;;;;1.55;1.10;;;22.40;58.70;;;;;;5067578;28;20061;-72
2022/07/02 01:06:59;;;;;;;1.10;1.00;;;22.40;58.80;;;;;;5067658;28;20052;-72
2022/07/02 01:12:10;;;;;;;1.23;1.00;;;22.40;58.90;;;;;;5067902;28;20044;-72
2022/07/02 01:14:37;;;;;;;1.58;1.05;;;22.30;58.90;;;;;;5067065;28;20558;-72
2022/07/02 01:17:05;;;;;;;1.35;0.90;;;22.40;58.90;;;;;;5066759;28;20135;-73
2022/07/02 01:19:32;;;;;;;1.00;0.90;;;22.30;58.90;;;;;;5067427;28;20544;-73
2022/07/02 01:22:12;;;;;;;1.42;1.10;;;22.30;58.90;;;;;;5067404;28;20055;-72
2022/07/02 01:24:39;;;;;;;1.50;0.90;;;22.30;58.80;;;;;;5067347;28;20130;-72
2022/07/02 01:27:06;;;;;;;1.77;1.00;;;22.30;58.90;;;;;;5065553;28;20053;-72
2022/07/02 01:29:33;;;;;;;1.63;1.17;;;22.30;59.00;;;;;;5051499;28;20482;-72
2022/07/02 01:31:59;;;;;;;2.15;1.20;;;22.30;58.90;;;;;;5052512;28;20804;-72
2022/07/02 01:34:26;;;;;;;1.35;0.90;;;22.30;58.90;;;;;;5050952;28;20049;-72
2022/07/02 01:36:53;;;;;;;2.35;1.00;;;22.30;59.00;;;;;;5065367;28;20053;-72
2022/07/02 01:39:25;;;;;;;1.23;1.00;;;22.30;59.00;;;;;;5071247;28;20067;-72
2022/07/02 01:41:51;;;;;;;1.13;1.00;;;22.30;58.90;;;;;;5070443;28;20504;-72
2022/07/02 01:44:18;;;;;;;1.20;1.00;;;22.30;58.90;;;;;;5071103;28;20132;-72
2022/07/02 01:46:45;;;;;;;2.35;1.00;;;22.30;58.90;;;;;;5071285;28;20136;-72
2022/07/02 01:49:12;;;;;;;0.93;0.90;;;22.30;58.90;;;;;;5071071;28;20124;-72
2022/07/02 01:51:39;;;;;;;1.05;0.95;;;22.20;58.90;;;;;;5071132;28;20482;-72
2022/07/02 01:54:07;;;;;;;1.23;1.13;;;22.20;58.80;;;;;;5070364;28;20072;-72
2022/07/02 01:56:35;;;;;;;2.83;1.10;;;22.20;58.90;;;;;;5070154;28;20512;-72
2022/07/02 01:59:02;;;;;;;2.50;1.27;;;22.20;58.80;;;;;;5070715;28;20052;-72
2022/07/02 02:01:28;;;;;;;1.70;1.20;;;22.20;58.80;;;;;;5069617;28;20135;-73
2022/07/02 02:03:55;;;;;;;2.05;1.10;;;22.20;58.80;;;;;;5050945;28;20057;-73
2022/07/02 02:06:22;;;;;;;1.58;1.02;;;22.20;58.80;;;;;;5050838;28;20136;-73
2022/07/02 02:08:49;;;;;;;1.88;1.20;;;22.20;58.80;;;;;;5050574;28;20148;-73
2022/07/02 02:11:16;;;;;;;1.48;1.08;;;22.10;58.80;;;;;;5052872;28;20107;-73
2022/07/02 02:13:44;;;;;;;1.27;1.10;;;22.10;58.80;;;;;;5070549;28;20058;-72
2022/07/02 02:16:11;;;;;;;1.25;1.00;;;22.10;58.80;;;;;;5070231;28;20478;-73
2022/07/02 02:18:37;;;;;;;1.67;1.00;;;22.10;58.80;;;;;;5070445;28;20135;-72
2022/07/02 02:21:04;;;;;;;0.80;0.80;;;22.10;58.90;;;;;;5070637;28;20461;-72
2022/07/02 02:23:31;;;;;;;1.63;1.08;;;22.10;58.90;;;;;;5057436;28;20055;-73
2022/07/02 02:25:58;;;;;;;1.60;0.98;;;22.10;58.90;;;;;;5050540;28;20045;-72
2022/07/02 02:28:24;;;;;;;1.33;1.00;;;22.10;58.90;;;;;;5049929;28;20049;-72
2022/07/02 02:30:52;;;;;;;2.08;1.00;;;22.10;58.90;;;;;;5053288;28;20124;-72
2022/07/02 02:33:19;;;;;;;1.48;1.10;;;22.10;58.90;;;;;;5070014;28;20100;-72
2022/07/02 02:35:46;;;;;;;1.70;1.08;;;22.00;58.90;;;;;;5070221;28;20059;-73
2022/07/02 02:38:12;;;;;;;1.77;1.00;;;22.10;58.90;;;;;;5069941;28;20041;-73
2022/07/02 02:40:39;;;;;;;1.65;0.98;;;22.00;58.90;;;;;;5070130;28;20089;-73
2022/07/02 02:43:06;;;;;;;1.30;1.00;;;22.00;58.90;;;;;;5070915;28;20048;-72
2022/07/02 02:45:32;;;;;;;1.70;1.10;;;22.00;58.90;;;;;;5070402;28;20071;-73
2022/07/02 02:48:00;;;;;;;1.75;1.10;;;22.00;59.00;;;;;;5070039;28;20056;-73
2022/07/02 02:50:27;;;;;;;1.85;1.05;;;22.00;58.90;;;;;;5069878;28;20058;-72
2022/07/02 02:52:54;;;;;;;1.45;0.90;;;22.00;59.00;;;;;;5057500;28;20057;-73
2022/07/02 02:55:21;;;;;;;2.35;1.23;;;22.00;59.00;;;;;;5049931;28;20132;-73
2022/07/02 02:57:47;;;;;;;1.75;1.30;;;22.00;59.00;;;;;;5050044;28;20049;-73
2022/07/02 03:00:15;;;;;;;1.10;1.00;;;22.00;58.90;;;;;;5049582;28;20421;-72
2022/07/02 03:02:41;;;;;;;1.75;1.10;;;22.00;59.00;;;;;;5068089;28;20059;-73
2022/07/02 03:05:09;;;;;;;1.10;1.00;;;22.00;59.00;;;;;;5069420;28;20048;-72
2022/07/02 03:07:36;;;;;;;1.52;0.98;;;22.00;59.00;;;;;;5069665;28;20115;-72
2022/07/02 03:10:03;;;;;;;1.35;1.13;;;22.00;59.00;;;;;;5069517;28;20140;-73
2022/07/02 03:12:30;;;;;;;1.52;1.00;;;21.90;58.90;;;;;;5069565;28;20119;-73
2022/07/02 03:14:56;;;;;;;2.15;1.20;;;21.90;58.90;;;;;;5069382;28;20060;-73
2022/07/02 03:17:23;;;;;;;1.73;1.15;;;21.90;58.90;;;;;;5069560;28;20139;-72
2022/07/02 03:19:51;;;;;;;3.25;1.10;;;21.90;59.00;;;;;;5070405;28;20074;-72
2022/07/02 03:22:19;;;;;;;1.40;1.20;;;21.90;59.00;;;;;;5055485;28;20501;-72
2022/07/02 03:24:45;;;;;;;1.60;1.17;;;21.90;58.90;;;;;;5049345;28;20063;-73
2022/07/02 03:27:12;;;;;;;1.15;1.00;;;21.90;58.90;;;;;;5050437;28;20048;-72
2022/07/02 03:29:39;;;;;;;2.08;1.20;;;21.90;58.90;;;;;;5065827;28;20116;-73
2022/07/02 03:32:06;;;;;;;2.30;1.10;;;21.90;58.90;;;;;;5069215;28;20060;-73
2022/07/02 03:34:33;;;;;;;2.67;1.30;;;21.90;58.90;;;;;;5068700;28;20056;-73
2022/07/02 03:37:00;;;;;;;1.65;0.93;;;21.90;59.00;;;;;;5068118;28;20049;-72
2022/07/02 03:39:28;;;;;;;1.25;1.00;;;21.90;58.90;;;;;;5070138;28;20059;-73
2022/07/02 03:41:55;;;;;;;1.30;1.20;;;21.90;59.10;;;;;;5068922;28;20052;-73
2022/07/02 03:44:21;;;;;;;2.38;1.02;;;21.90;59.00;;;;;;5067783;28;20063;-72
2022/07/02 03:46:48;;;;;;;1.10;1.00;;;21.80;58.90;;;;;;5070042;28;20058;-72
2022/07/02 03:49:15;;;;;;;1.35;0.90;;;21.90;58.90;;;;;;5068779;28;20055;-72
2022/07/02 03:51:41;;;;;;;1.00;0.90;;;21.80;58.90;;;;;;5055269;28;20067;-72
2022/07/02 03:54:08;;;;;;;1.17;1.00;;;21.90;58.90;;;;;;5064448;28;20577;-72
2022/07/02 03:56:36;;;;;;;1.92;1.10;;;21.80;58.90;;;;;;5058348;28;20043;-72
2022/07/02 03:59:03;;;;;;;2.80;1.30;;;21.80;58.90;;;;;;5048514;28;20135;-72
2022/07/02 04:01:30;;;;;;;1.73;1.40;;;21.80;58.80;;;;;;5055722;28;20143;-72
2022/07/02 04:03:56;;;;;;;1.20;1.10;;;21.80;58.80;;;;;;5068503;28;20135;-72
2022/07/02 04:06:23;;;;;;;1.73;1.30;;;21.70;58.80;;;;;;5068266;28;20210;-73
2022/07/02 04:08:50;;;;;;;3.17;1.30;;;21.80;58.90;;;;;;5068270;28;20063;-73
2022/07/02 04:11:17;;;;;;;1.98;1.30;;;21.80;58.80;;;;;;5067496;28;20080;-72
2022/07/02 04:13:45;;;;;;;1.60;1.10;;;21.80;58.80;;;;;;5068029;28;20644;-72
2022/07/02 04:16:12;;;;;;;1.45;1.00;;;21.80;58.80;;;;;;5068181;28;20052;-72
2022/07/02 04:18:38;;;;;;;1.77;1.20;;;21.80;58.80;;;;;;5068252;28;20052;-72
2022/07/02 04:21:05;;;;;;;1.15;1.05;;;21.80;58.80;;;;;;5067943;28;20053;-72
2022/07/02 04:23:32;;;;;;;1.77;1.10;;;21.70;58.70;;;;;;5067736;28;20135;-72
2022/07/02 04:25:58;;;;;;;1.35;1.10;;;21.70;58.70;;;;;;5067487;28;20139;-72
2022/07/02 04:28:26;;;;;;;1.35;1.10;;;21.70;58.70;;;;;;5067725;28;20056;-72
2022/07/02 04:30:54;;;;;;;1.40;1.10;;;21.80;58.70;;;;;;5069322;28;20049;-72
2022/07/02 04:33:20;;;;;;;1.75;1.10;;;21.80;58.70;;;;;;5067757;28;20048;-72
2022/07/02 04:35:47;;;;;;;2.38;1.08;;;21.80;58.70;;;;;;5067893;28;20049;-72
2022/07/02 04:38:14;;;;;;;2.03;1.20;;;21.80;58.60;;;;;;5068077;28;20056;-72
2022/07/02 04:40:41;;;;;;;1.10;1.00;;;21.80;58.70;;;;;;5055889;28;20124;-72
2022/07/02 04:43:07;;;;;;;1.55;1.02;;;21.90;58.70;;;;;;5047609;28;20056;-72
2022/07/02 04:45:34;;;;;;;2.00;1.20;;;21.80;58.70;;;;;;5047959;28;20048;-72
2022/07/02 04:48:02;;;;;;;1.25;1.00;;;21.80;58.70;;;;;;5056137;28;20144;-73
2022/07/02 04:50:29;;;;;;;2.78;1.10;;;21.80;58.70;;;;;;5067850;28;20664;-73
2022/07/02 04:52:56;;;;;;;1.25;1.10;;;21.70;58.70;;;;;;5067766;28;20061;-74
2022/07/02 04:55:23;;;;;;;1.25;1.00;;;21.70;58.70;;;;;;5063942;28;20163;-74
2022/07/02 04:57:50;;;;;;;1.48;1.17;;;23.30;59.60;;;;;;5061257;28;20475;-73
2022/07/02 05:00:17;;;;;;;1.77;1.10;;;21.70;58.80;;;;;;5047492;28;20131;-73
2022/07/02 05:02:43;;;;;;;1.60;1.10;;;21.70;58.70;;;;;;5065188;28;20055;-73
2022/07/02 05:05:11;;;;;;;2.63;1.20;;;21.70;58.80;;;;;;5067520;28;20131;-73
2022/07/02 05:07:38;;;;;;;1.90;1.00;;;21.70;58.80;;;;;;5067593;28;20054;-73
2022/07/02 05:10:05;;;;;;;1.30;1.05;;;21.70;58.80;;;;;;5067390;28;20052;-73
2022/07/02 05:12:33;;;;;;;1.55;1.10;;;21.70;58.80;;;;;;5067525;28;20136;-73
2022/07/02 05:15:00;;;;;;;1.55;1.17;;;21.60;58.70;;;;;;5057620;28;20458;-73
2022/07/02 05:17:27;;;;;;;2.13;1.27;;;21.70;58.70;;;;;;5053776;28;20051;-73
2022/07/02 05:19:53;;;;;;;1.40;1.00;;;21.70;58.70;;;;;;5057076;28;20059;-73
2022/07/02 05:22:22;;;;;;;1.42;1.17;;;21.70;58.80;;;;;;5067588;28;20056;-73
2022/07/02 05:24:48;;;;;;;1.95;1.30;;;21.60;58.70;;;;;;5063811;28;20116;-73
2022/07/02 05:27:15;;;;;;;2.05;1.40;;;21.60;58.70;;;;;;5056278;28;20546;-73
2022/07/02 05:29:42;;;;;;;2.25;1.00;;;21.60;58.70;;;;;;5067197;28;20052;-73
2022/07/02 05:32:12;;;;;;;1.52;1.10;;;21.60;58.70;;;;;;5056250;28;20076;-73
2022/07/02 05:34:39;;;;;;;1.35;1.10;;;21.60;58.70;;;;;;5051447;28;20128;-72
2022/07/02 05:37:05;;;;;;;1.90;1.02;;;21.60;58.70;;;;;;5068424;28;20040;-72
2022/07/02 05:39:33;;;;;;;2.75;1.17;;;21.60;58.70;;;;;;5068275;28;20147;-72
2022/07/02 05:42:00;;;;;;;1.45;1.05;;;21.70;58.80;;;;;;5068631;28;20048;-72
2022/07/02 05:44:27;;;;;;;1.35;0.98;;;21.70;58.80;;;;;;5066996;28;20138;-72
2022/07/02 05:46:53;;;;;;;1.10;1.00;;;21.80;58.90;;;;;;5067346;28;20144;-72
2022/07/02 05:49:20;;;;;;;1.60;1.20;;;21.90;58.90;;;;;;5059451;28;20079;-72
2022/07/02 05:51:47;;;;;;;1.45;1.10;;;22.00;58.60;;;;;;5047146;28;20060;-72
2022/07/02 05:54:14;;;;;;;2.03;1.20;;;22.20;58.20;;;;;;5046694;28;20059;-72
2022/07/02 05:56:42;;;;;;;2.63;1.10;;;22.30;57.80;;;;;;5047975;28;20512;-72
2022/07/02 05:59:08;;;;;;;2.83;1.20;;;22.40;57.50;;;;;;5048456;28;20053;-72
2022/07/02 06:01:35;;;;;;;4.10;1.15;;;22.50;57.20;;;;;;5055099;28;20052;-72
2022/07/02 06:04:02;;;;;;;2.08;1.10;;;22.70;56.90;;;;;;5067369;28;20045;-72
2022/07/02 06:09:12;;;;;;;1.45;1.15;;;23.00;56.30;;;;;;5067024;28;20057;-72
2022/07/02 06:11:39;;;;;;;2.28;1.10;;;23.10;56.10;;;;;;5066862;28;20205;-72
2022/07/02 06:14:07;;;;;;;3.13;1.20;;;23.30;56.00;;;;;;5070277;28;20048;-72
2022/07/02 06:16:34;;;;;;;1.20;1.00;;;23.40;55.70;;;;;;5071566;28;20059;-72
2022/07/02 06:19:00;;;;;;;0.93;0.90;;;23.50;55.60;;;;;;5071074;28;20047;-72
2022/07/02 06:21:27;;;;;;;1.40;1.02;;;23.70;55.50;;;;;;5070445;28;20080;-72
2022/07/02 06:23:54;;;;;;;2.65;1.35;;;23.80;55.30;;;;;;5069922;28;20055;-72
2022/07/02 06:26:21;;;;;;;1.35;1.10;;;23.90;55.00;;;;;;5052605;28;20073;-72
2022/07/02 06:28:47;;;;;;;1.73;1.20;;;24.00;54.80;;;;;;5055242;28;20104;-72
2022/07/02 06:31:15;;;;;;;2.58;1.17;;;24.10;54.70;;;;;;5058883;28;20136;-73
2022/07/02 06:33:42;;;;;;;1.20;1.10;;;24.20;54.60;;;;;;5063990;28;20585;-72
2022/07/02 06:36:14;;;;;;;2.72;1.00;;;24.30;54.50;;;;;;5050028;28;20049;-73
2022/07/02 06:38:40;;;;;;;1.88;0.90;;;24.50;54.40;;;;;;5050466;28;20052;-73
2022/07/02 06:42:18;;;;;;;2.22;0.85;;;24.60;54.30;;;;;;5050088;28;20053;-73
2022/07/02 06:44:02;;;;;;;1.40;1.00;;;24.70;54.10;;;;;;5056140;28;20453;-73
2022/07/02 06:46:30;;;;;;;1.85;1.20;;;24.80;53.90;;;;;;5061507;28;20307;-73
2022/07/02 06:48:56;;;;;;;1.17;0.85;;;24.90;53.80;;;;;;5068648;28;20055;-73
2022/07/02 06:51:23;;;;;;;2.03;1.15;;;25.00;53.60;;;;;;5070268;28;20048;-73
2022/07/02 06:53:50;;;;;;;1.52;0.90;;;25.20;53.60;;;;;;5069555;28;20049;-73
2022/07/02 06:56:17;;;;;;;2.95;1.02;;;25.20;53.40;;;;;;5070135;28;20044;-74
2022/07/02 06:58:43;;;;;;;1.98;1.10;;;25.30;53.30;;;;;;5062764;28;20064;-73
2022/07/02 07:01:10;;;;;;;2.17;1.02;;;25.40;53.20;;;;;;5054598;28;20056;-73
2022/07/02 07:03:38;;;;;;;1.75;1.00;;;25.60;53.10;;;;;;5068545;28;20056;-74
2022/07/02 07:06:05;;;;;;;1.20;0.98;;;25.60;53.00;;;;;;5070002;28;20053;-75
2022/07/02 07:08:32;;;;;;;1.13;0.98;;;25.70;52.90;;;;;;5069643;28;20084;-72
2022/07/02 07:10:58;;;;;;;1.58;0.90;;;25.80;52.80;;;;;;5069972;28;20664;-73
2022/07/02 07:13:25;;;;;;;0.70;0.70;;;25.90;52.80;;;;;;5069079;28;20051;-75
2022/07/02 07:15:52;;;;;;;1.65;0.90;;;26.00;52.70;;;;;;5069969;28;20525;-72
2022/07/02 07:18:18;;;;;;;2.60;0.90;;;26.00;52.50;;;;;;5068667;28;20051;-73
2022/07/02 07:20:47;;;;;;;1.20;0.80;;;26.10;52.40;;;;;;5069534;28;20040;-73
2022/07/02 07:23:14;;;;;;;1.48;0.90;;;26.20;52.30;;;;;;5068553;28;20064;-73
2022/07/02 07:25:41;;;;;;;1.10;0.90;;;26.20;52.20;;;;;;5061836;28;20041;-73
2022/07/02 07:28:07;;;;;;;1.42;0.80;;;26.30;52.10;;;;;;5049614;28;20053;-73
2022/07/02 07:30:34;;;;;;;2.00;0.90;;;26.30;52.00;;;;;;5049311;28;20053;-73
2022/07/02 07:33:01;;;;;;;4.20;0.80;;;26.40;52.00;;;;;;5066407;28;20135;-73
2022/07/02 07:35:27;;;;;;;1.73;0.80;;;26.40;51.90;;;;;;5054656;28;20049;-73
2022/07/02 07:37:59;;;;;;;0.73;0.73;;;26.50;51.90;;;;;;5051122;28;20409;-73
2022/07/02 07:40:26;;;;;;;1.45;1.00;;;26.50;51.90;;;;;;5063674;28;20084;-74
2022/07/02 07:42:53;;;;;;;1.20;0.82;;;26.50;51.80;;;;;;5068917;28;20135;-73
2022/07/02 07:45:19;;;;;;;1.10;0.82;;;26.60;51.80;;;;;;5052651;28;20139;-73
2022/07/02 07:47:46;;;;;;;1.00;0.85;;;26.60;51.80;;;;;;5057325;28;20134;-73
2022/07/02 07:50:13;;;;;;;1.15;0.90;;;26.60;51.70;;;;;;5055550;28;20055;-73
2022/07/02 07:52:39;;;;;;;2.28;0.70;;;26.70;51.70;;;;;;5051335;28;20051;-73
2022/07/02 07:55:08;;;;;;;1.98;0.80;;;26.70;51.70;;;;;;5064057;28;20072;-75
2022/07/02 07:57:35;;;;;;;1.65;0.93;;;26.70;51.60;;;;;;5068346;28;20055;-73
2022/07/02 08:00:03;;;;;;;0.80;0.80;;;26.70;51.60;;;;;;5062246;28;20055;-73
2022/07/02 08:02:29;;;;;;;1.50;0.98;;;26.70;51.60;;;;;;5056145;28;20063;-73
2022/07/02 08:04:56;;;;;;;0.88;0.75;;;26.80;51.60;;;;;;5057307;28;20088;-73
2022/07/02 08:07:23;;;;;;;0.88;0.73;;;26.80;51.50;;;;;;5065904;28;20127;-73
2022/07/02 08:09:52;;;;;;;3.10;0.70;;;26.80;51.50;;;;;;5061308;28;20163;-73
2022/07/02 08:12:21;;;;;;;1.88;1.00;;;26.80;51.40;;;;;;5056231;28;20098;-73
2022/07/02 08:14:47;;;;;;;1.40;1.00;;;26.80;51.30;;;;;;5055766;28;20402;-73
2022/07/02 08:17:14;;;;;;;0.68;0.68;;;26.90;51.30;;;;;;5056928;28;20040;-73
2022/07/02 08:19:41;;;;;;;0.80;0.80;;;26.90;51.20;;;;;;5056682;28;20051;-74
2022/07/02 08:22:08;;;;;;;1.33;0.65;;;26.90;51.20;;;;;;5056804;28;20059;-73
2022/07/02 08:24:34;;;;;;;3.70;1.00;;;26.90;51.00;;;;;;5058575;28;20082;-73
2022/07/02 08:27:01;;;;;;;7.40;1.42;;;26.90;50.70;;;;;;5047982;28;20468;-74
2022/07/02 08:29:29;;;;;;;5.30;1.00;;;26.90;50.90;;;;;;5058266;28;20080;-73
2022/07/02 08:31:56;;;;;;;10.50;1.50;;;26.80;51.10;;;;;;5056627;28;20080;-72
2022/07/02 08:34:23;;;;;;;3.25;1.00;;;26.90;51.30;;;;;;5058035;28;20466;-73
2022/07/02 08:36:49;;;;;;;4.75;1.20;;;26.90;51.50;;;;;;5056353;28;20046;-73
2022/07/02 08:39:16;;;;;;;10.15;1.10;;;26.90;51.50;;;;;;5056815;28;20143;-73
2022/07/02 08:41:43;;;;;;;3.05;0.90;;;26.90;51.60;;;;;;5058405;28;20127;-73
2022/07/02 08:44:10;;;;;;;10.30;1.42;;;26.90;51.80;;;;;;5055587;28;20080;-73
2022/07/02 08:46:39;;;;;;;3.65;1.08;;;26.90;51.80;;;;;;5051277;28;20056;-73
2022/07/02 08:49:05;;;;;;;8.68;1.15;;;26.90;52.00;;;;;;5058024;28;20063;-73
2022/07/02 08:51:32;;;;;;;3.72;1.38;;;26.90;52.10;;;;;;5057321;28;20088;-72
2022/07/02 08:53:59;;;;;;;5.70;0.93;;;27.00;52.10;;;;;;5059289;28;20131;-72
2022/07/02 08:56:26;;;;;;;6.10;1.38;;;27.00;52.00;;;;;;5065944;28;20121;-72
2022/07/02 08:58:52;;;;;;;4.88;1.10;;;27.00;51.80;;;;;;5068110;28;20067;-72
2022/07/02 09:01:19;;;;;;;3.10;1.00;;;27.10;51.80;;;;;;5066224;28;20055;-72
2022/07/02 09:03:47;;;;;;;2.58;0.90;;;27.10;51.80;;;;;;5058980;28;20317;-72
2022/07/02 09:06:14;;;;;;;2.22;0.90;;;27.10;51.80;;;;;;5056555;28;20056;-72
2022/07/02 09:08:41;;;;;;;5.15;0.90;;;27.10;51.80;;;;;;5067612;28;20052;-72
2022/07/02 09:11:08;;;;;;;1.30;0.85;;;27.10;51.80;;;;;;5067317;28;20056;-73
2022/07/02 09:13:35;;;;;;;1.08;0.68;;;27.10;51.80;;;;;;5066900;28;20056;-72
2022/07/02 09:16:01;;;;;;;1.00;0.80;;;27.10;51.80;;;;;;5065870;28;20044;-72
2022/07/02 09:18:28;;;;;;;0.90;0.70;;;27.10;51.70;;;;;;5066838;28;20051;-73
2022/07/02 09:20:57;;;;;;;2.15;0.85;;;27.10;51.80;;;;;;5067620;28;20519;-72
2022/07/02 09:23:24;;;;;;;2.25;0.82;;;27.10;51.80;;;;;;5067159;28;20131;-73
2022/07/02 09:25:51;;;;;;;1.83;0.95;;;27.20;51.90;;;;;;5068514;28;20553;-72
2022/07/02 09:28:18;;;;;;;0.70;0.60;;;27.10;51.80;;;;;;5068650;28;20482;-72
2022/07/02 09:30:44;;;;;;;1.33;0.98;;;27.10;51.80;;;;;;5053032;28;20513;-72
2022/07/02 09:33:31;;;;;;;0.88;0.52;;;27.20;51.90;;;;;;5047058;28;20057;-72
2022/07/02 09:35:59;;;;;;;1.63;0.82;;;27.20;51.90;;;;;;5048525;28;20053;-73
2022/07/02 09:38:26;;;;;;;0.85;0.73;;;27.20;51.90;;;;;;5048279;28;20049;-72
2022/07/02 09:40:53;;;;;;;1.65;0.60;;;27.10;51.90;;;;;;5047545;28;20550;-72
2022/07/02 09:43:27;;;;;;;0.85;0.70;;;27.20;51.90;;;;;;5047023;28;20053;-73
2022/07/02 09:45:54;;;;;;;1.48;0.77;;;27.20;52.00;;;;;;5049344;28;20080;-72
2022/07/02 09:48:21;;;;;;;0.90;0.68;;;27.20;51.90;;;;;;5062269;28;20052;-74
2022/07/02 09:50:48;;;;;;;1.88;0.70;;;27.20;52.00;;;;;;5070964;28;20135;-73
2022/07/02 09:53:16;;;;;;;0.73;0.70;;;27.20;51.90;;;;;;5070399;28;20059;-73
2022/07/02 09:55:47;;;;;;;0.82;0.70;;;27.30;52.00;;;;;;5071239;28;20052;-72
2022/07/02 09:58:14;;;;;;;0.50;0.50;;;27.20;52.00;;;;;;5070410;28;20123;-72
2022/07/02 10:00:44;;;;;;;2.22;0.80;;;27.20;52.00;;;;;;5053303;28;20049;-73
2022/07/02 10:03:10;;;;;;;1.08;0.70;;;27.30;52.00;;;;;;5066456;28;20048;-73
2022/07/02 10:05:37;;;;;;;3.80;0.90;;;27.30;52.00;;;;;;5071233;28;20054;-73
2022/07/02 10:08:05;;;;;;;1.38;0.70;;;27.20;52.00;;;;;;5070957;28;20405;-72
2022/07/02 10:10:35;;;;;;;0.68;0.55;;;27.20;52.10;;;;;;5070623;28;20088;-73
2022/07/02 10:13:02;;;;;;;0.73;0.73;;;27.20;52.00;;;;;;5069537;28;20048;-73
2022/07/02 10:15:31;;;;;;;0.63;0.50;;;27.20;51.80;;;;;;5067844;28;20063;-73
2022/07/02 10:17:58;;;;;;;1.25;0.88;;;27.10;51.70;;;;;;5050356;28;20049;-73
2022/07/02 10:20:25;;;;;;;0.88;0.70;;;26.90;51.40;;;;;;5050802;28;20108;-73
2022/07/02 10:22:52;;;;;;;1.20;0.80;;;26.90;51.50;;;;;;5050654;28;20079;-73
2022/07/02 10:25:19;;;;;;;0.90;0.70;;;26.90;51.50;;;;;;5050558;28;20059;-73
2022/07/02 10:27:47;;;;;;;0.60;0.60;;;26.80;51.40;;;;;;5050305;28;20068;-73
2022/07/02 10:30:14;;;;;;;1.13;0.57;;;26.70;51.20;;;;;;5051232;28;20144;-73
2022/07/02 10:32:43;;;;;;;1.48;0.80;;;26.70;51.20;;;;;;5053631;28;20052;-73
2022/07/02 10:35:12;;;;;;;3.50;0.73;;;26.60;51.60;;;;;;5059555;28;20056;-73
2022/07/02 10:37:39;;;;;;;4.93;0.80;;;26.60;51.90;;;;;;5063489;28;20055;-73
2022/07/02 10:40:07;;;;;;;1.40;0.68;;;26.60;51.70;;;;;;5059857;28;20083;-73
2022/07/02 10:42:40;;;;;;;1.20;0.63;;;26.60;51.90;;;;;;5060801;28;20133;-72
2022/07/02 10:45:14;;;;;;;1.55;0.90;;;26.50;51.90;;;;;;5057637;28;20057;-73
2022/07/02 10:47:53;;;;;;;3.95;0.90;;;26.50;52.10;;;;;;5060415;28;20098;-73
2022/07/02 10:50:20;;;;;;;0.88;0.75;;;26.50;52.10;;;;;;5069952;28;20056;-73
2022/07/02 10:52:51;;;;;;;1.30;0.70;;;26.40;52.30;;;;;;5069562;28;20052;-70
2022/07/02 10:55:28;;;;;;;1.13;0.60;;;26.40;52.40;;;;;;5069784;28;20124;-73
2022/07/02 10:57:58;;;;;;;0.65;0.63;;;26.40;52.40;;;;;;5066658;28;20511;-73
2022/07/02 11:00:30;;;;;;;2.65;0.70;;;26.50;52.60;;;;;;5058960;28;20052;-73
2022/07/02 11:02:58;;;;;;;0.70;0.70;;;26.40;52.40;;;;;;5057330;28;20060;-73
2022/07/02 11:05:25;;;;;;;0.68;0.60;;;26.40;52.30;;;;;;5049735;28;20053;-73
2022/07/02 11:07:52;;;;;;;1.52;0.73;;;26.30;52.10;;;;;;5058524;28;20053;-73
2022/07/02 11:10:26;;;;;;;2.35;0.70;;;26.30;52.00;;;;;;5068468;28;20122;-73
2022/07/02 11:12:56;;;;;;;1.48;0.70;;;26.20;51.80;;;;;;5069809;28;20554;-73
2022/07/02 11:15:27;;;;;;;1.25;0.70;;;26.20;52.10;;;;;;5065655;28;20127;-72
2022/07/02 11:17:55;;;;;;;2.15;0.80;;;26.20;52.10;;;;;;5049902;28;20055;-73
2022/07/02 11:20:26;;;;;;;0.68;0.60;;;26.10;52.10;;;;;;5049529;28;20057;-73
2022/07/02 11:22:53;;;;;;;2.25;0.70;;;26.10;52.00;;;;;;5062449;28;20055;-73
2022/07/02 11:25:20;;;;;;;2.10;0.70;;;26.10;52.20;;;;;;5069244;28;20052;-73
2022/07/02 11:27:56;;;;;;;1.63;0.80;;;26.10;52.30;;;;;;5069454;28;20075;-73
2022/07/02 11:30:25;;;;;;;2.53;0.90;;;26.10;52.40;;;;;;5064860;28;20140;-73
2022/07/02 11:32:52;;;;;;;1.02;0.70;;;26.10;52.70;;;;;;5051506;28;20127;-73
2022/07/02 11:35:20;;;;;;;6.28;2.30;;;26.10;52.80;;;;;;5053203;28;20131;-73
2022/07/02 11:37:47;;;;;;;17.50;7.35;;;26.10;52.90;;;;;;5068819;28;20044;-73
2022/07/02 11:40:20;;;;;;;24.08;11.80;;;26.20;53.00;;;;;;5069222;28;20135;-73
2022/07/02 11:42:47;;;;;;;16.48;6.40;;;26.20;53.00;;;;;;5068420;28;20106;-73
2022/07/02 11:45:13;;;;;;;10.43;5.80;;;26.20;53.10;;;;;;5064086;28;20043;-73
2022/07/02 11:47:45;;;;;;;8.50;4.72;;;26.20;53.10;;;;;;5060566;28;20055;-73
2022/07/02 11:50:12;;;;;;;10.85;4.05;;;26.20;53.00;;;;;;5048990;28;20128;-73
2022/07/02 11:52:41;;;;;;;6.85;3.72;;;26.20;53.00;;;;;;5048601;28;20052;-73
2022/07/02 11:55:14;;;;;;;9.07;3.60;;;26.20;52.80;;;;;;5048782;28;20057;-73
2022/07/02 11:57:41;;;;;;;5.25;2.90;;;26.20;52.80;;;;;;5048785;28;20052;-73
2022/07/02 12:00:09;;;;;;;7.55;2.88;;;26.20;52.90;;;;;;5048834;28;20044;-73
2022/07/02 12:02:39;;;;;;;6.65;2.38;;;26.10;52.90;;;;;;5065038;28;20056;-73
2022/07/02 12:05:16;;;;;;;6.15;2.85;;;26.10;52.80;;;;;;5068365;28;20045;-73
2022/07/02 12:07:45;;;;;;;6.25;2.25;;;26.10;52.70;;;;;;5068243;28;20517;-72
2022/07/02 12:10:11;;;;;;;5.57;2.60;;;26.10;52.80;;;;;;5067491;28;20140;-73
2022/07/02 12:12:38;;;;;;;3.17;2.30;;;26.00;53.10;;;;;;5068168;28;20052;-73
2022/07/02 12:15:06;;;;;;;3.72;2.20;;;26.10;53.40;;;;;;5068262;28;20127;-73
2022/07/02 12:17:35;;;;;;;4.80;2.40;;;26.00;53.90;;;;;;5068414;28;20052;-73
2022/07/02 12:20:01;;;;;;;5.15;2.35;;;26.00;53.30;;;;;;5067795;28;20048;-73
2022/07/02 12:22:29;;;;;;;3.55;2.00;;;26.00;53.40;;;;;;5059089;28;20052;-73
2022/07/02 12:24:57;;;;;;;5.03;2.47;;;26.00;53.50;;;;;;5048143;28;20103;-72
2022/07/02 12:27:24;;;;;;;4.05;2.10;;;25.90;53.50;;;;;;5049431;28;20053;-73
2022/07/02 12:30:04;;;;;;;3.40;2.00;;;25.90;53.60;;;;;;5054890;28;20128;-73
2022/07/02 12:32:32;;;;;;;4.03;1.75;;;25.90;53.90;;;;;;5051978;28;20478;-73
2022/07/02 12:35:00;;;;;;;4.80;2.08;;;26.00;54.20;;;;;;5046927;28;20055;-73
2022/07/02 12:37:27;;;;;;;5.95;1.90;;;25.90;54.00;;;;;;5047211;28;20749;-73
2022/07/02 12:40:02;;;;;;;4.43;2.15;;;25.90;53.70;;;;;;5046846;28;20085;-73
2022/07/02 12:42:31;;;;;;;2.53;1.58;;;25.90;53.50;;;;;;5047550;28;20557;-73
2022/07/02 12:44:59;;;;;;;3.00;1.90;;;25.90;53.40;;;;;;5047360;28;20049;-73
2022/07/02 12:47:28;;;;;;;2.47;1.65;;;25.90;53.30;;;;;;5051214;28;20647;-73
2022/07/02 12:49:56;;;;;;;3.28;1.60;;;25.90;53.30;;;;;;5067970;28;20127;-73
2022/07/02 12:52:23;;;;;;;3.45;1.88;;;25.90;53.30;;;;;;5068353;28;20748;-73